sensor_id;sensor_type;location;lat;lon;timestamp;pressure;altitude;pressure_sealevel;temperature;humidity
61119;BME280;51448;51.660;5.824;2022-09-13T00:01:05;100903.00;;;17.85;84.75
61119;BME280;51448;51.660;5.824;2022-09-13T00:03:33;100911.81;;;17.85;85.26
61119;BME280;51448;51.660;5.824;2022-09-13T00:06:16;100910.00;;;17.86;85.70
61119;BME280;51448;51.660;5.824;2022-09-13T00:08:45;100914.56;;;17.84;85.25
61119;BME280;51448;51.660;5.824;2022-09-13T00:11:20;100911.06;;;17.83;85.41
61119;BME280;51448;51.660;5.824;2022-09-13T00:13:52;100905.78;;;17.82;85.87
61119;BME280;51448;51.660;5.824;2022-09-13T00:16:23;100907.53;;;17.83;85.56
61119;BME280;51448;51.660;5.824;2022-09-13T00:18:52;100908.38;;;17.83;85.89
61119;BME280;51448;51.660;5.824;2022-09-13T00:21:22;100903.06;;;17.83;85.77
61119;BME280;51448;51.660;5.824;2022-09-13T00:23:52;100895.94;;;17.84;85.76
61119;BME280;51448;51.660;5.824;2022-09-13T00:26:25;100893.28;;;17.84;85.63
61119;BME280;51448;51.660;5.824;2022-09-13T00:28:56;100896.91;;;17.83;85.47
61119;BME280;51448;51.660;5.824;2022-09-13T00:31:27;100889.75;;;17.83;85.52
61119;BME280;51448;51.660;5.824;2022-09-13T00:33:57;100881.78;;;17.83;85.95
61119;BME280;51448;51.660;5.824;2022-09-13T00:36:26;100883.59;;;17.83;85.65
61119;BME280;51448;51.660;5.824;2022-09-13T00:38:54;100878.28;;;17.83;85.70
61119;BME280;51448;51.660;5.824;2022-09-13T00:41:21;100880.94;;;17.83;85.23
61119;BME280;51448;51.660;5.824;2022-09-13T00:43:50;100879.16;;;17.82;85.81
61119;BME280;51448;51.660;5.824;2022-09-13T00:49:17;100870.41;;;17.80;85.53
61119;BME280;51448;51.660;5.824;2022-09-13T00:51:54;100875.75;;;17.80;85.73
61119;BME280;51448;51.660;5.824;2022-09-13T00:54:28;100863.31;;;17.80;85.69
61119;BME280;51448;51.660;5.824;2022-09-13T00:57:03;100856.28;;;17.79;85.29
61119;BME280;51448;51.660;5.824;2022-09-13T00:59:46;100857.03;;;17.81;85.27
61119;BME280;51448;51.660;5.824;2022-09-13T01:02:42;100859.69;;;17.81;85.07
61119;BME280;51448;51.660;5.824;2022-09-13T01:05:14;100857.88;;;17.82;85.18
61119;BME280;51448;51.660;5.824;2022-09-13T01:07:44;100848.13;;;17.82;84.78
61119;BME280;51448;51.660;5.824;2022-09-13T01:10:12;100850.78;;;17.82;84.64
61119;BME280;51448;51.660;5.824;2022-09-13T01:12:45;100852.44;;;17.85;84.78
61119;BME280;51448;51.660;5.824;2022-09-13T01:15:19;100855.88;;;17.87;84.51
61119;BME280;51448;51.660;5.824;2022-09-13T01:17:48;100857.56;;;17.88;84.69
61119;BME280;51448;51.660;5.824;2022-09-13T01:20:18;100862.88;;;17.88;84.68
61119;BME280;51448;51.660;5.824;2022-09-13T01:23:06;100860.22;;;17.88;84.36
61119;BME280;51448;51.660;5.824;2022-09-13T01:26:06;100868.13;;;17.89;83.95
61119;BME280;51448;51.660;5.824;2022-09-13T01:29:08;100864.78;;;17.86;83.80
61119;BME280;51448;51.660;5.824;2022-09-13T01:32:07;100860.22;;;17.88;83.85
61119;BME280;51448;51.660;5.824;2022-09-13T01:49:42;100855.50;;;17.93;83.51
61119;BME280;51448;51.660;5.824;2022-09-13T01:52:29;100850.19;;;17.93;83.61
61119;BME280;51448;51.660;5.824;2022-09-13T01:58:04;100858.09;;;17.95;83.49
61119;BME280;51448;51.660;5.824;2022-09-13T02:03:47;100856.28;;;17.95;83.42
61119;BME280;51448;51.660;5.824;2022-09-13T02:09:43;100850.97;;;17.95;83.45
61119;BME280;51448;51.660;5.824;2022-09-13T02:12:19;100850.00;;;17.96;83.69
61119;BME280;51448;51.660;5.824;2022-09-13T02:15:14;100838.41;;;17.97;83.33
61119;BME280;51448;51.660;5.824;2022-09-13T02:17:47;100841.06;;;17.97;83.53
61119;BME280;51448;51.660;5.824;2022-09-13T02:20:29;100842.88;;;17.97;83.56
61119;BME280;51448;51.660;5.824;2022-09-13T02:23:09;100851.81;;;17.96;83.54
61119;BME280;51448;51.660;5.824;2022-09-13T02:25:42;100853.63;;;17.95;83.71
61119;BME280;51448;51.660;5.824;2022-09-13T02:28:18;100855.31;;;17.96;83.62
61119;BME280;51448;51.660;5.824;2022-09-13T02:30:51;100848.22;;;17.97;83.57
61119;BME280;51448;51.660;5.824;2022-09-13T02:33:28;100839.34;;;17.96;84.09
61119;BME280;51448;51.660;5.824;2022-09-13T02:36:02;100826.16;;;17.95;83.95
61119;BME280;51448;51.660;5.824;2022-09-13T02:38:47;100833.19;;;17.96;83.46
61119;BME280;51448;51.660;5.824;2022-09-13T02:41:32;100841.25;;;17.94;84.08
61119;BME280;51448;51.660;5.824;2022-09-13T02:44:14;100833.25;;;17.94;84.08
61119;BME280;51448;51.660;5.824;2022-09-13T02:59:00;100853.00;;;17.90;84.02
61119;BME280;51448;51.660;5.824;2022-09-13T03:04:39;100855.78;;;17.88;83.81
61119;BME280;51448;51.660;5.824;2022-09-13T03:07:11;100868.91;;;17.92;84.19
61119;BME280;51448;51.660;5.824;2022-09-13T03:09:52;100859.22;;;17.91;84.38
61119;BME280;51448;51.660;5.824;2022-09-13T03:16:54;100855.66;;;17.90;84.26
61119;BME280;51448;51.660;5.824;2022-09-13T03:19:35;100854.91;;;17.88;84.54
61119;BME280;51448;51.660;5.824;2022-09-13T03:22:11;100861.19;;;17.87;84.67
61119;BME280;51448;51.660;5.824;2022-09-13T03:25:13;100856.63;;;17.89;84.91
61119;BME280;51448;51.660;5.824;2022-09-13T03:31:17;100850.72;;;17.84;84.69
61119;BME280;51448;51.660;5.824;2022-09-13T03:33:58;100855.22;;;17.82;84.83
61119;BME280;51448;51.660;5.824;2022-09-13T03:36:44;100844.69;;;17.80;84.86
61119;BME280;51448;51.660;5.824;2022-09-13T03:42:30;100837.66;;;17.79;85.13
61119;BME280;51448;51.660;5.824;2022-09-13T03:45:06;100846.59;;;17.78;84.96
61119;BME280;51448;51.660;5.824;2022-09-13T03:47:44;100843.06;;;17.78;85.67
61119;BME280;51448;51.660;5.824;2022-09-13T03:50:20;100839.53;;;17.77;85.65
61119;BME280;51448;51.660;5.824;2022-09-13T03:52:55;100845.72;;;17.78;85.60
61119;BME280;51448;51.660;5.824;2022-09-13T03:55:29;100836.97;;;17.76;85.76
61119;BME280;51448;51.660;5.824;2022-09-13T03:57:59;100843.25;;;17.75;85.66
61119;BME280;51448;51.660;5.824;2022-09-13T04:00:27;100831.84;;;17.73;85.77
61119;BME280;51448;51.660;5.824;2022-09-13T04:02:55;100831.84;;;17.73;85.57
61119;BME280;51448;51.660;5.824;2022-09-13T04:05:23;100835.44;;;17.72;85.83
61119;BME280;51448;51.660;5.824;2022-09-13T04:07:50;100833.72;;;17.70;85.52
61119;BME280;51448;51.660;5.824;2022-09-13T04:10:18;100845.31;;;17.69;85.77
61119;BME280;51448;51.660;5.824;2022-09-13T04:12:45;100841.09;;;17.65;85.51
61119;BME280;51448;51.660;5.824;2022-09-13T04:15:13;100848.31;;;17.63;85.70
61119;BME280;51448;51.660;5.824;2022-09-13T04:17:40;100852.84;;;17.61;85.80
61119;BME280;51448;51.660;5.824;2022-09-13T04:20:08;100859.13;;;17.60;85.94
61119;BME280;51448;51.660;5.824;2022-09-13T04:22:37;100852.09;;;17.59;85.76
61119;BME280;51448;51.660;5.824;2022-09-13T04:25:05;100853.97;;;17.57;86.16
61119;BME280;51448;51.660;5.824;2022-09-13T04:27:33;100863.00;;;17.55;86.27
61119;BME280;51448;51.660;5.824;2022-09-13T04:30:01;100865.72;;;17.53;86.24
61119;BME280;51448;51.660;5.824;2022-09-13T04:32:29;100873.81;;;17.52;86.26
61119;BME280;51448;51.660;5.824;2022-09-13T04:34:57;100872.94;;;17.51;86.23
61119;BME280;51448;51.660;5.824;2022-09-13T04:37:24;100873.91;;;17.50;86.53
61119;BME280;51448;51.660;5.824;2022-09-13T04:39:52;100866.00;;;17.48;86.58
61119;BME280;51448;51.660;5.824;2022-09-13T04:42:20;100876.72;;;17.47;86.75
61119;BME280;51448;51.660;5.824;2022-09-13T04:44:47;100874.06;;;17.47;86.65
61119;BME280;51448;51.660;5.824;2022-09-13T04:47:16;100879.38;;;17.47;86.51
61119;BME280;51448;51.660;5.824;2022-09-13T04:49:43;100882.03;;;17.47;86.71
61119;BME280;51448;51.660;5.824;2022-09-13T04:52:11;100882.91;;;17.47;86.92
61119;BME280;51448;51.660;5.824;2022-09-13T04:54:38;100880.34;;;17.46;86.64
61119;BME280;51448;51.660;5.824;2022-09-13T04:57:06;100880.34;;;17.46;87.07
61119;BME280;51448;51.660;5.824;2022-09-13T04:59:33;100878.53;;;17.46;86.73
61119;BME280;51448;51.660;5.824;2022-09-13T05:02:01;100877.69;;;17.46;87.11
61119;BME280;51448;51.660;5.824;2022-09-13T05:04:28;100869.69;;;17.46;87.29
61119;BME280;51448;51.660;5.824;2022-09-13T05:06:56;100881.25;;;17.45;87.08
61119;BME280;51448;51.660;5.824;2022-09-13T05:09:25;100880.34;;;17.46;87.42
61119;BME280;51448;51.660;5.824;2022-09-13T05:11:52;100889.16;;;17.46;86.98
61119;BME280;51448;51.660;5.824;2022-09-13T05:14:20;100888.31;;;17.46;87.51
61119;BME280;51448;51.660;5.824;2022-09-13T05:16:48;100893.63;;;17.46;87.62
61119;BME280;51448;51.660;5.824;2022-09-13T05:19:16;100893.63;;;17.46;87.74
61119;BME280;51448;51.660;5.824;2022-09-13T05:21:43;100893.63;;;17.46;88.03
61119;BME280;51448;51.660;5.824;2022-09-13T05:24:11;100890.97;;;17.46;87.81
61119;BME280;51448;51.660;5.824;2022-09-13T05:26:38;100889.16;;;17.46;87.71
61119;BME280;51448;51.660;5.824;2022-09-13T05:29:07;100894.47;;;17.46;87.62
61119;BME280;51448;51.660;5.824;2022-09-13T05:31:37;100886.44;;;17.48;87.80
61119;BME280;51448;51.660;5.824;2022-09-13T05:34:09;100882.81;;;17.49;87.57
61119;BME280;51448;51.660;5.824;2022-09-13T05:36:39;100890.72;;;17.50;87.40
61119;BME280;51448;51.660;5.824;2022-09-13T05:39:11;100890.72;;;17.50;88.05
61119;BME280;51448;51.660;5.824;2022-09-13T05:42:00;100888.13;;;17.49;88.12
61119;BME280;51448;51.660;5.824;2022-09-13T05:44:28;100888.81;;;17.53;87.62
61119;BME280;51448;51.660;5.824;2022-09-13T05:46:55;100891.41;;;17.54;87.94
61119;BME280;51448;51.660;5.824;2022-09-13T05:49:23;100890.34;;;17.57;87.95
61119;BME280;51448;51.660;5.824;2022-09-13T05:51:51;100890.28;;;17.58;88.09
61119;BME280;51448;51.660;5.824;2022-09-13T05:54:18;100892.88;;;17.60;88.27
61119;BME280;51448;51.660;5.824;2022-09-13T05:56:46;100898.06;;;17.61;88.18
61119;BME280;51448;51.660;5.824;2022-09-13T05:59:14;100887.44;;;17.61;88.13
61119;BME280;51448;51.660;5.824;2022-09-13T06:01:42;100886.50;;;17.62;87.98
61119;BME280;51448;51.660;5.824;2022-09-13T06:04:11;100882.88;;;17.63;88.02
61119;BME280;51448;51.660;5.824;2022-09-13T06:06:39;100884.53;;;17.66;88.18
61119;BME280;51448;51.660;5.824;2022-09-13T06:09:06;100885.19;;;17.69;88.04
61119;BME280;51448;51.660;5.824;2022-09-13T06:11:35;100880.66;;;17.72;88.22
61119;BME280;51448;51.660;5.824;2022-09-13T06:14:02;100892.06;;;17.74;88.35
61119;BME280;51448;51.660;5.824;2022-09-13T06:16:30;100891.03;;;17.76;88.10
61119;BME280;51448;51.660;5.824;2022-09-13T06:18:58;100898.84;;;17.79;87.97
61119;BME280;51448;51.660;5.824;2022-09-13T06:21:25;100887.94;;;17.84;88.12
61119;BME280;51448;51.660;5.824;2022-09-13T06:23:55;100899.28;;;17.87;88.42
61119;BME280;51448;51.660;5.824;2022-09-13T06:26:25;100899.78;;;17.94;88.30
61119;BME280;51448;51.660;5.824;2022-09-13T06:28:56;100900.47;;;17.98;87.79
61119;BME280;51448;51.660;5.824;2022-09-13T06:31:26;100894.03;;;18.02;88.39
61119;BME280;51448;51.660;5.824;2022-09-13T06:34:00;100902.50;;;18.08;88.33
61119;BME280;51448;51.660;5.824;2022-09-13T06:36:32;100898.63;;;18.14;88.29
61119;BME280;51448;51.660;5.824;2022-09-13T06:39:00;100901.88;;;18.19;87.71
61119;BME280;51448;51.660;5.824;2022-09-13T06:41:28;100896.28;;;18.24;87.99
61119;BME280;51448;51.660;5.824;2022-09-13T06:43:58;100901.25;;;18.30;87.63
61119;BME280;51448;51.660;5.824;2022-09-13T06:46:28;100898.22;;;18.36;87.47
61119;BME280;51448;51.660;5.824;2022-09-13T06:48:59;100893.28;;;18.44;87.87
61119;BME280;51448;51.660;5.824;2022-09-13T06:51:28;100896.44;;;18.51;88.30
61119;BME280;51448;51.660;5.824;2022-09-13T06:53:56;100890.66;;;18.59;87.29
61119;BME280;51448;51.660;5.824;2022-09-13T06:56:31;100886.47;;;18.69;87.36
61119;BME280;51448;51.660;5.824;2022-09-13T06:59:05;100885.56;;;18.84;87.54
61119;BME280;51448;51.660;5.824;2022-09-13T07:01:37;100880.97;;;19.01;86.83
61119;BME280;51448;51.660;5.824;2022-09-13T07:04:12;100888.19;;;19.13;86.71
61119;BME280;51448;51.660;5.824;2022-09-13T07:06:43;100886.28;;;19.29;87.35
61119;BME280;51448;51.660;5.824;2022-09-13T07:09:17;100879.97;;;19.45;86.66
61119;BME280;51448;51.660;5.824;2022-09-13T07:11:52;100890.78;;;19.56;85.42
61119;BME280;51448;51.660;5.824;2022-09-13T07:14:23;100894.78;;;19.63;85.52
61119;BME280;51448;51.660;5.824;2022-09-13T07:16:52;100889.00;;;19.71;85.56
61119;BME280;51448;51.660;5.824;2022-09-13T07:19:23;100889.22;;;19.81;85.69
61119;BME280;51448;51.660;5.824;2022-09-13T07:21:55;100880.41;;;19.93;85.37
61119;BME280;51448;51.660;5.824;2022-09-13T07:24:24;100895.81;;;20.02;84.37
61119;BME280;51448;51.660;5.824;2022-09-13T07:26:53;100887.09;;;20.13;84.81
61119;BME280;51448;51.660;5.824;2022-09-13T07:29:22;100891.69;;;20.24;84.31
61119;BME280;51448;51.660;5.824;2022-09-13T07:31:52;100899.09;;;20.33;84.23
61119;BME280;51448;51.660;5.824;2022-09-13T07:34:23;100891.19;;;20.44;83.93
61119;BME280;51448;51.660;5.824;2022-09-13T07:36:52;100904.69;;;20.56;83.56
61119;BME280;51448;51.660;5.824;2022-09-13T07:39:20;100904.72;;;20.68;83.04
61119;BME280;51448;51.660;5.824;2022-09-13T07:41:50;100900.34;;;20.80;83.02
61119;BME280;51448;51.660;5.824;2022-09-13T07:44:18;100906.50;;;20.94;82.72
61119;BME280;51448;51.660;5.824;2022-09-13T07:46:45;100904.69;;;21.07;82.02
61119;BME280;51448;51.660;5.824;2022-09-13T07:49:16;100900.16;;;21.20;82.14
61119;BME280;51448;51.660;5.824;2022-09-13T07:51:44;100909.97;;;21.33;82.12
61119;BME280;51448;51.660;5.824;2022-09-13T07:57:01;100919.28;;;21.53;81.06
61119;BME280;51448;51.660;5.824;2022-09-13T07:59:29;100922.59;;;21.56;81.18
61119;BME280;51448;51.660;5.824;2022-09-13T08:01:57;100918.84;;;21.59;80.65
61119;BME280;51448;51.660;5.824;2022-09-13T08:04:24;100923.75;;;21.65;80.63
61119;BME280;51448;51.660;5.824;2022-09-13T08:06:52;100917.81;;;21.73;80.50
61119;BME280;51448;51.660;5.824;2022-09-13T08:09:19;100924.41;;;21.80;79.78
61119;BME280;51448;51.660;5.824;2022-09-13T08:11:50;100924.09;;;21.84;79.88
61119;BME280;51448;51.660;5.824;2022-09-13T08:14:20;100920.97;;;21.90;79.87
61119;BME280;51448;51.660;5.824;2022-09-13T08:16:49;100931.97;;;21.99;79.73
61119;BME280;51448;51.660;5.824;2022-09-13T08:19:17;100921.66;;;22.05;79.17
61119;BME280;51448;51.660;5.824;2022-09-13T08:21:45;100917.41;;;22.14;79.21
61119;BME280;51448;51.660;5.824;2022-09-13T08:24:18;100923.81;;;22.24;78.73
61119;BME280;51448;51.660;5.824;2022-09-13T08:26:49;100925.06;;;22.32;78.00
61119;BME280;51448;51.660;5.824;2022-09-13T08:29:21;100926.41;;;22.37;78.33
61119;BME280;51448;51.660;5.824;2022-09-13T08:31:48;100924.97;;;22.44;78.67
61119;BME280;51448;51.660;5.824;2022-09-13T08:34:16;100934.25;;;22.52;78.15
61119;BME280;51448;51.660;5.824;2022-09-13T08:36:44;100931.97;;;22.58;77.88
61119;BME280;51448;51.660;5.824;2022-09-13T08:39:12;100928.44;;;22.69;78.33
61119;BME280;51448;51.660;5.824;2022-09-13T08:44:35;100933.69;;;22.82;77.47
61119;BME280;51448;51.660;5.824;2022-09-13T08:50:18;100936.63;;;22.90;76.67
61119;BME280;51448;51.660;5.824;2022-09-13T08:55:50;100939.22;;;23.03;77.49
61119;BME280;51448;51.660;5.824;2022-09-13T09:09:57;100942.41;;;23.19;76.72
61119;BME280;51448;51.660;5.824;2022-09-13T09:12:32;100947.03;;;23.17;76.78
61119;BME280;51448;51.660;5.824;2022-09-13T09:15:17;100937.03;;;23.19;76.35
61119;BME280;51448;51.660;5.824;2022-09-13T09:18:02;100932.28;;;23.23;76.82
61119;BME280;51448;51.660;5.824;2022-09-13T09:20:43;100930.69;;;23.32;76.77
61119;BME280;51448;51.660;5.824;2022-09-13T09:23:21;100929.97;;;23.41;77.03
61119;BME280;51448;51.660;5.824;2022-09-13T09:25:56;100928.34;;;23.49;76.37
61119;BME280;51448;51.660;5.824;2022-09-13T09:28:37;100925.56;;;23.51;75.49
61119;BME280;51448;51.660;5.824;2022-09-13T09:31:13;100923.34;;;23.56;76.07
61119;BME280;51448;51.660;5.824;2022-09-13T09:34:30;100920.03;;;23.64;75.61
61119;BME280;51448;51.660;5.824;2022-09-13T09:39:52;100920.78;;;23.77;75.55
61119;BME280;51448;51.660;5.824;2022-09-13T09:42:24;100920.13;;;23.85;74.99
61119;BME280;51448;51.660;5.824;2022-09-13T09:45:02;100908.63;;;23.94;75.75
61119;BME280;51448;51.660;5.824;2022-09-13T09:47:43;100911.75;;;24.10;75.22
61119;BME280;51448;51.660;5.824;2022-09-13T09:50:21;100916.81;;;24.25;74.12
61119;BME280;51448;51.660;5.824;2022-09-13T09:57:57;100919.63;;;24.44;74.36
61119;BME280;51448;51.660;5.824;2022-09-13T10:00:36;100919.78;;;24.43;73.66
61119;BME280;51448;51.660;5.824;2022-09-13T10:03:19;100919.06;;;24.41;74.16
61119;BME280;51448;51.660;5.824;2022-09-13T10:05:50;100917.94;;;24.43;74.23
61119;BME280;51448;51.660;5.824;2022-09-13T10:08:32;100920.50;;;24.45;73.40
61119;BME280;51448;51.660;5.824;2022-09-13T10:11:03;100918.44;;;24.37;73.57
61119;BME280;51448;51.660;5.824;2022-09-13T10:13:32;100927.75;;;24.33;73.79
61119;BME280;51448;51.660;5.824;2022-09-13T10:16:28;100916.41;;;24.29;74.25
61119;BME280;51448;51.660;5.824;2022-09-13T10:19:24;100913.41;;;24.23;74.04
61119;BME280;51448;51.660;5.824;2022-09-13T10:21:59;100911.66;;;24.22;73.99
61119;BME280;51448;51.660;5.824;2022-09-13T10:24:32;100909.13;;;24.20;73.79
61119;BME280;51448;51.660;5.824;2022-09-13T10:26:59;100919.38;;;24.26;74.36
61119;BME280;51448;51.660;5.824;2022-09-13T10:29:30;100906.50;;;24.30;74.19
61119;BME280;51448;51.660;5.824;2022-09-13T10:32:07;100918.91;;;24.42;73.69
61119;BME280;51448;51.660;5.824;2022-09-13T10:34:35;100910.09;;;24.52;73.50
61119;BME280;51448;51.660;5.824;2022-09-13T10:40:03;100895.59;;;24.64;72.12
61119;BME280;51448;51.660;5.824;2022-09-13T10:42:35;100900.56;;;24.68;72.11
61119;BME280;51448;51.660;5.824;2022-09-13T10:45:05;100896.50;;;24.74;72.02
61119;BME280;51448;51.660;5.824;2022-09-13T10:47:46;100894.13;;;24.81;71.88
61119;BME280;51448;51.660;5.824;2022-09-13T10:55:35;100894.81;;;25.14;71.27
61119;BME280;51448;51.660;5.824;2022-09-13T11:03:29;100895.66;;;25.04;70.50
61119;BME280;51448;51.660;5.824;2022-09-13T11:06:29;100890.94;;;24.97;70.52
61119;BME280;51448;51.660;5.824;2022-09-13T11:09:18;100888.66;;;24.92;70.94
61119;BME280;51448;51.660;5.824;2022-09-13T11:14:48;100885.59;;;25.06;70.92
61119;BME280;51448;51.660;5.824;2022-09-13T11:17:52;100888.72;;;25.12;70.90
61119;BME280;51448;51.660;5.824;2022-09-13T11:20:36;100883.63;;;25.08;70.68
61119;BME280;51448;51.660;5.824;2022-09-13T11:23:30;100886.69;;;25.04;70.97
61119;BME280;51448;51.660;5.824;2022-09-13T11:29:28;100879.16;;;24.88;70.87
61119;BME280;51448;51.660;5.824;2022-09-13T11:38:04;100865.19;;;24.73;71.48
61119;BME280;51448;51.660;5.824;2022-09-13T11:41:09;100867.44;;;24.68;71.53
61119;BME280;51448;51.660;5.824;2022-09-13T11:46:59;100867.69;;;24.65;71.30
61119;BME280;51448;51.660;5.824;2022-09-13T11:50:11;100866.59;;;24.67;71.48
61119;BME280;51448;51.660;5.824;2022-09-13T11:53:13;100863.38;;;24.74;71.93
61119;BME280;51448;51.660;5.824;2022-09-13T11:56:00;100859.88;;;24.83;71.59
61119;BME280;51448;51.660;5.824;2022-09-13T11:58:38;100858.19;;;24.82;71.04
61119;BME280;51448;51.660;5.824;2022-09-13T12:01:30;100862.13;;;24.78;71.41
61119;BME280;51448;51.660;5.824;2022-09-13T12:04:06;100864.94;;;24.76;71.09
61119;BME280;51448;51.660;5.824;2022-09-13T12:06:46;100866.91;;;24.74;70.50
61119;BME280;51448;51.660;5.824;2022-09-13T12:09:26;100861.94;;;24.69;70.72
61119;BME280;51448;51.660;5.824;2022-09-13T12:12:04;100863.75;;;24.69;71.08
61119;BME280;51448;51.660;5.824;2022-09-13T12:14:54;100867.63;;;24.76;71.30
61119;BME280;51448;51.660;5.824;2022-09-13T12:19:58;100855.97;;;24.97;70.51
61119;BME280;51448;51.660;5.824;2022-09-13T12:22:31;100854.84;;;24.99;70.41
61119;BME280;51448;51.660;5.824;2022-09-13T12:25:06;100851.44;;;24.97;70.62
61119;BME280;51448;51.660;5.824;2022-09-13T12:27:57;100851.72;;;24.94;70.42
61119;BME280;51448;51.660;5.824;2022-09-13T12:30:45;100853.53;;;24.94;70.47
61119;BME280;51448;51.660;5.824;2022-09-13T12:33:23;100855.25;;;24.95;70.20
61119;BME280;51448;51.660;5.824;2022-09-13T12:36:38;100855.97;;;24.97;70.06
61119;BME280;51448;51.660;5.824;2022-09-13T12:48:12;100856.34;;;24.82;70.40
61119;BME280;51448;51.660;5.824;2022-09-13T12:51:13;100848.69;;;24.87;70.16
61119;BME280;51448;51.660;5.824;2022-09-13T12:54:08;100851.84;;;24.93;70.20
61119;BME280;51448;51.660;5.824;2022-09-13T12:57:00;100843.22;;;24.99;70.19
61119;BME280;51448;51.660;5.824;2022-09-13T13:05:36;100846.81;;;25.09;69.40
61119;BME280;51448;51.660;5.824;2022-09-13T13:13:41;100835.72;;;25.33;68.67
61119;BME280;51448;51.660;5.824;2022-09-13T13:16:35;100836.84;;;25.40;67.77
61119;BME280;51448;51.660;5.824;2022-09-13T13:19:31;100830.63;;;25.40;68.13
61119;BME280;51448;51.660;5.824;2022-09-13T13:25:36;100836.00;;;25.40;67.67
61119;BME280;51448;51.660;5.824;2022-09-13T13:33:54;100839.00;;;25.56;67.41
61119;BME280;51448;51.660;5.824;2022-09-13T13:36:27;100843.38;;;25.67;67.76
61119;BME280;51448;51.660;5.824;2022-09-13T13:39:00;100842.69;;;25.75;67.38
61119;BME280;51448;51.660;5.824;2022-09-13T13:46:41;100838.28;;;25.83;66.34
61119;BME280;51448;51.660;5.824;2022-09-13T13:58:03;100838.84;;;25.67;66.46
61119;BME280;51448;51.660;5.824;2022-09-13T14:00:52;100837.88;;;25.68;66.89
61119;BME280;51448;51.660;5.824;2022-09-13T14:09:27;100823.41;;;25.69;66.37
61119;BME280;51448;51.660;5.824;2022-09-13T14:12:20;100822.13;;;25.74;66.46
61119;BME280;51448;51.660;5.824;2022-09-13T14:15:41;100821.56;;;25.80;65.88
61119;BME280;51448;51.660;5.824;2022-09-13T14:18:31;100815.59;;;25.86;65.64
61119;BME280;51448;51.660;5.824;2022-09-13T14:21:04;100823.31;;;25.91;65.04
61119;BME280;51448;51.660;5.824;2022-09-13T14:23:48;100819.88;;;25.98;64.80
61119;BME280;51448;51.660;5.824;2022-09-13T14:26:16;100823.00;;;26.03;64.90
61119;BME280;51448;51.660;5.824;2022-09-13T14:28:43;100826.25;;;26.07;64.98
61119;BME280;51448;51.660;5.824;2022-09-13T14:31:17;100825.97;;;26.10;64.71
61119;BME280;51448;51.660;5.824;2022-09-13T14:33:46;100818.44;;;26.14;64.18
61119;BME280;51448;51.660;5.824;2022-09-13T14:36:19;100818.44;;;26.14;64.56
61119;BME280;51448;51.660;5.824;2022-09-13T14:38:58;100815.44;;;26.17;64.27
61119;BME280;51448;51.660;5.824;2022-09-13T14:41:32;100817.16;;;26.18;64.06
61119;BME280;51448;51.660;5.824;2022-09-13T14:44:20;100816.59;;;26.14;63.38
61119;BME280;51448;51.660;5.824;2022-09-13T14:47:00;100823.72;;;26.05;63.55
61119;BME280;51448;51.660;5.824;2022-09-13T14:49:37;100822.88;;;25.95;63.57
61119;BME280;51448;51.660;5.824;2022-09-13T14:52:37;100822.44;;;25.80;63.46
61119;BME280;51448;51.660;5.824;2022-09-13T14:55:31;100819.28;;;25.65;64.06
61119;BME280;51448;51.660;5.824;2022-09-13T14:58:06;100821.56;;;25.60;64.66
61119;BME280;51448;51.660;5.824;2022-09-13T15:01:07;100824.81;;;25.54;64.42
61119;BME280;51448;51.660;5.824;2022-09-13T15:03:42;100814.63;;;25.48;64.67
61119;BME280;51448;51.660;5.824;2022-09-13T15:06:23;100815.59;;;25.47;64.85
61119;BME280;51448;51.660;5.824;2022-09-13T15:08:58;100822.94;;;25.45;64.80
61119;BME280;51448;51.660;5.824;2022-09-13T15:11:38;100819.56;;;25.43;64.96
61119;BME280;51448;51.660;5.824;2022-09-13T15:14:34;100815.31;;;25.40;64.93
61119;BME280;51448;51.660;5.824;2022-09-13T15:19:39;100819.25;;;25.26;65.19
61119;BME280;51448;51.660;5.824;2022-09-13T15:24:55;100814.66;;;25.07;65.41
61119;BME280;51448;51.660;5.824;2022-09-13T15:29:59;100811.63;;;24.91;65.57
61119;BME280;51448;51.660;5.824;2022-09-13T15:32:39;100811.44;;;24.83;66.22
61119;BME280;51448;51.660;5.824;2022-09-13T15:35:21;100808.59;;;24.75;66.54
61119;BME280;51448;51.660;5.824;2022-09-13T15:38:00;100821.72;;;24.68;66.31
61119;BME280;51448;51.660;5.824;2022-09-13T15:41:00;100812.22;;;24.64;66.75
61119;BME280;51448;51.660;5.824;2022-09-13T15:43:31;100809.09;;;24.59;66.89
61119;BME280;51448;51.660;5.824;2022-09-13T15:45:58;100818.16;;;24.58;67.19
61119;BME280;51448;51.660;5.824;2022-09-13T15:48:31;100811.22;;;24.55;67.50
61119;BME280;51448;51.660;5.824;2022-09-13T15:51:09;100807.66;;;24.55;67.49
61119;BME280;51448;51.660;5.824;2022-09-13T15:53:40;100813.44;;;24.50;67.70
61119;BME280;51448;51.660;5.824;2022-09-13T15:56:14;100807.72;;;24.43;67.94
61119;BME280;51448;51.660;5.824;2022-09-13T15:58:43;100807.53;;;24.35;68.02
61119;BME280;51448;51.660;5.824;2022-09-13T16:01:12;100800.13;;;24.27;67.90
61119;BME280;51448;51.660;5.824;2022-09-13T16:03:40;100808.00;;;24.19;68.61
61119;BME280;51448;51.660;5.824;2022-09-13T16:06:08;100798.06;;;24.10;68.09
61119;BME280;51448;51.660;5.824;2022-09-13T16:08:37;100792.63;;;24.00;68.37
61119;BME280;51448;51.660;5.824;2022-09-13T16:11:05;100783.63;;;23.90;68.13
61119;BME280;51448;51.660;5.824;2022-09-13T16:13:34;100800.38;;;23.82;68.50
61119;BME280;51448;51.660;5.824;2022-09-13T16:16:03;100794.66;;;23.76;68.78
61119;BME280;51448;51.660;5.824;2022-09-13T16:18:33;100799.56;;;23.70;68.79
61119;BME280;51448;51.660;5.824;2022-09-13T16:21:01;100794.69;;;23.64;69.18
61119;BME280;51448;51.660;5.824;2022-09-13T16:23:28;100793.53;;;23.57;69.52
61119;BME280;51448;51.660;5.824;2022-09-13T16:25:57;100795.59;;;23.54;69.63